Time;durP1;ratioP1;P1;durP2;ratioP2;P2;SDS_P1;SDS_P2;PMS_P1;PMS_P2;Temp;Humidity;BMP_temperature;BMP_pressure;BME280_temperature;BME280_humidity;BME280_pressure;Samples;Min_cycle;Max_cycle;Signal;HPM_P1;HPM_P2
2023/10/06 00:00:34;;;;;;;8.97;8.20;;;12.60;99.90;;;;;;5024874;28;20209;-64
2023/10/06 00:03:05;;;;;;;9.17;8.27;;;12.60;99.90;;;;;;5024273;28;20201;-64
2023/10/06 00:05:32;;;;;;;9.53;8.60;;;12.60;99.90;;;;;;5024064;28;20220;-64
2023/10/06 00:07:58;;;;;;;9.30;8.40;;;12.60;99.90;;;;;;5024214;28;20250;-64
2023/10/06 00:10:27;;;;;;;9.10;8.40;;;12.60;99.90;;;;;;5024909;28;20295;-64
2023/10/06 00:12:58;;;;;;;8.80;8.00;;;12.60;99.90;;;;;;5024932;28;20209;-65
2023/10/06 00:15:35;;;;;;;9.20;8.27;;;12.70;99.90;;;;;;5024869;28;20243;-64
2023/10/06 00:18:07;;;;;;;9.03;8.00;;;12.70;99.90;;;;;;5024405;28;20243;-64
2023/10/06 00:20:45;;;;;;;9.50;8.30;;;12.70;99.90;;;;;;5025012;28;20197;-64
2023/10/06 00:23:14;;;;;;;8.63;7.73;;;12.70;99.90;;;;;;5024488;28;20225;-64
2023/10/06 00:25:43;;;;;;;10.13;8.30;;;12.70;99.90;;;;;;5024315;28;20714;-64
2023/10/06 00:28:19;;;;;;;9.40;8.60;;;12.70;99.90;;;;;;5024594;28;20205;-64
2023/10/06 00:30:47;;;;;;;8.10;7.43;;;12.70;99.90;;;;;;5028826;28;20196;-64
2023/10/06 00:33:15;;;;;;;9.57;8.10;;;12.70;99.90;;;;;;5027398;28;20294;-64
2023/10/06 00:35:44;;;;;;;9.43;8.43;;;12.80;99.90;;;;;;5025089;28;20593;-64
2023/10/06 00:38:16;;;;;;;9.50;8.20;;;12.80;99.90;;;;;;5015849;28;20218;-64
2023/10/06 00:40:50;;;;;;;8.53;7.73;;;12.80;99.90;;;;;;5028030;28;20769;-64
2023/10/06 00:43:28;;;;;;;8.33;7.67;;;12.80;99.90;;;;;;5028007;28;20250;-64
2023/10/06 00:46:00;;;;;;;8.70;7.87;;;12.90;99.90;;;;;;5028011;28;20227;-64
2023/10/06 00:48:29;;;;;;;10.40;7.20;;;12.90;99.90;;;;;;5027943;28;20208;-64
2023/10/06 00:50:58;;;;;;;8.70;7.90;;;12.90;99.90;;;;;;5028162;28;20258;-64
2023/10/06 00:53:31;;;;;;;9.83;8.77;;;12.90;99.90;;;;;;5028021;28;20671;-64
2023/10/06 00:55:59;;;;;;;8.83;8.00;;;12.90;99.90;;;;;;5028385;28;20205;-64
2023/10/06 00:58:34;;;;;;;9.20;8.37;;;12.90;99.90;;;;;;5028272;28;20217;-64
2023/10/06 01:01:05;;;;;;;9.93;8.93;;;12.80;99.90;;;;;;5027824;28;20251;-64
2023/10/06 01:03:33;;;;;;;10.13;9.23;;;12.80;99.90;;;;;;5027312;28;20199;-63
2023/10/06 01:06:07;;;;;;;10.53;9.27;;;12.80;99.90;;;;;;5027559;28;20213;-64
2023/10/06 01:08:34;;;;;;;10.10;9.00;;;12.90;99.90;;;;;;5027385;28;20240;-64
2023/10/06 01:11:11;;;;;;;10.53;9.17;;;12.90;99.90;;;;;;5027732;28;20292;-64
2023/10/06 01:13:53;;;;;;;12.67;9.63;;;12.90;99.90;;;;;;5027639;28;20746;-64
2023/10/06 01:16:24;;;;;;;11.27;9.37;;;12.90;99.90;;;;;;5027498;28;20208;-64
2023/10/06 01:19:00;;;;;;;11.83;10.63;;;12.80;99.90;;;;;;5027477;28;20200;-65
2023/10/06 01:21:29;;;;;;;12.27;10.43;;;12.90;99.90;;;;;;5027350;28;20677;-65
2023/10/06 01:24:03;;;;;;;13.63;10.43;;;12.90;99.90;;;;;;5027625;28;20308;-64
2023/10/06 01:26:30;;;;;;;14.07;11.60;;;12.90;99.90;;;;;;5027276;28;20200;-64
2023/10/06 01:28:57;;;;;;;15.40;12.43;;;12.90;99.90;;;;;;5027478;28;20228;-64
2023/10/06 01:31:24;;;;;;;16.07;12.70;;;12.90;99.90;;;;;;5027263;28;20212;-65
2023/10/06 01:33:51;;;;;;;16.23;13.10;;;12.90;99.90;;;;;;5026110;28;20969;-64
2023/10/06 01:36:22;;;;;;;14.97;12.27;;;13.00;99.90;;;;;;5011337;28;20245;-64
2023/10/06 01:38:49;;;;;;;15.57;13.07;;;13.00;99.90;;;;;;5026747;28;20197;-65
2023/10/06 01:41:20;;;;;;;18.70;13.53;;;13.00;99.90;;;;;;5025817;28;20887;-64
2023/10/06 01:43:47;;;;;;;18.80;13.43;;;13.00;99.90;;;;;;5026741;28;20208;-64
2023/10/06 01:46:14;;;;;;;16.53;12.83;;;13.10;99.90;;;;;;5026729;28;20209;-64
2023/10/06 01:48:41;;;;;;;16.13;13.13;;;13.10;99.90;;;;;;5026712;28;20667;-65
2023/10/06 01:51:10;;;;;;;15.83;12.70;;;13.10;99.90;;;;;;5026463;28;21038;-65
2023/10/06 01:53:40;;;;;;;14.97;13.23;;;13.10;99.90;;;;;;5027204;28;20220;-64
2023/10/06 01:56:08;;;;;;;15.30;13.17;;;13.10;99.90;;;;;;5026662;28;20317;-65
2023/10/06 01:58:37;;;;;;;15.37;12.90;;;13.10;99.90;;;;;;5026339;28;20197;-65
2023/10/06 02:01:06;;;;;;;20.43;13.03;;;13.10;99.90;;;;;;5026615;28;20274;-65
2023/10/06 02:03:38;;;;;;;18.47;12.63;;;13.10;99.90;;;;;;5026221;28;20215;-65
2023/10/06 02:06:13;;;;;;;16.33;13.10;;;13.10;99.90;;;;;;5026082;28;20224;-66
2023/10/06 02:08:40;;;;;;;16.90;12.67;;;13.10;99.90;;;;;;5026115;28;20244;-65
2023/10/06 02:11:09;;;;;;;15.60;12.70;;;13.10;99.90;;;;;;5026394;28;20204;-65
2023/10/06 02:13:38;;;;;;;14.27;12.73;;;13.10;99.90;;;;;;5026655;28;20299;-65
2023/10/06 02:16:06;;;;;;;19.47;14.13;;;13.10;99.90;;;;;;5026620;28;20212;-65
2023/10/06 02:18:36;;;;;;;18.33;13.67;;;13.20;99.90;;;;;;5026042;28;20205;-65
2023/10/06 02:21:10;;;;;;;16.70;14.40;;;13.20;99.90;;;;;;5026877;28;20213;-65
2023/10/06 02:23:38;;;;;;;18.83;13.53;;;13.20;99.90;;;;;;5026015;28;20282;-65
2023/10/06 02:26:09;;;;;;;17.70;14.43;;;13.20;99.90;;;;;;5025768;28;20259;-65
2023/10/06 02:28:44;;;;;;;15.43;13.67;;;13.20;99.90;;;;;;5026284;28;20316;-65
2023/10/06 02:31:12;;;;;;;19.07;14.57;;;13.20;99.90;;;;;;5025934;28;20207;-65
2023/10/06 02:33:40;;;;;;;20.63;15.40;;;13.20;99.90;;;;;;5026008;28;20255;-65
2023/10/06 02:36:17;;;;;;;18.80;15.03;;;13.20;99.90;;;;;;5026529;28;20209;-64
2023/10/06 02:38:47;;;;;;;22.63;14.77;;;13.20;99.90;;;;;;5026418;28;20189;-65
2023/10/06 02:41:23;;;;;;;19.40;15.23;;;13.20;99.90;;;;;;5026009;28;20193;-64
2023/10/06 02:43:52;;;;;;;20.97;15.70;;;13.20;99.90;;;;;;5025769;28;20203;-64
2023/10/06 02:46:23;;;;;;;18.50;14.97;;;13.20;99.90;;;;;;5025549;28;20327;-63
2023/10/06 02:48:50;;;;;;;18.60;15.13;;;13.30;99.90;;;;;;5025405;28;20910;-63
2023/10/06 02:51:28;;;;;;;18.80;15.73;;;13.30;99.90;;;;;;5024666;28;20213;-63
2023/10/06 02:54:09;;;;;;;21.53;15.67;;;13.30;99.90;;;;;;5025138;28;20930;-64
2023/10/06 02:56:36;;;;;;;19.97;16.30;;;13.30;99.90;;;;;;5025063;28;20304;-63
2023/10/06 02:59:20;;;;;;;19.47;16.07;;;13.30;99.90;;;;;;5025244;28;20212;-64
2023/10/06 03:01:51;;;;;;;21.87;17.13;;;13.30;99.90;;;;;;5025071;28;20200;-64
2023/10/06 03:04:20;;;;;;;21.90;16.73;;;13.30;99.90;;;;;;5025236;28;20197;-64
2023/10/06 03:06:52;;;;;;;18.23;16.23;;;13.30;99.90;;;;;;5025241;28;20260;-64
2023/10/06 03:09:20;;;;;;;22.57;18.63;;;13.40;99.90;;;;;;5025085;28;20208;-64
2023/10/06 03:11:49;;;;;;;24.20;19.77;;;13.30;99.90;;;;;;5025423;28;20201;-64
2023/10/06 03:14:24;;;;;;;22.80;18.93;;;13.40;99.90;;;;;;5025081;28;20287;-64
2023/10/06 03:16:52;;;;;;;24.07;18.10;;;13.40;99.90;;;;;;5025720;28;20242;-64
2023/10/06 03:19:24;;;;;;;25.67;18.63;;;13.40;99.90;;;;;;5025045;28;20664;-64
2023/10/06 03:21:55;;;;;;;23.97;19.47;;;13.40;99.90;;;;;;5025296;28;21066;-64
2023/10/06 03:24:31;;;;;;;23.00;19.27;;;13.40;99.90;;;;;;5025116;28;20215;-64
2023/10/06 03:26:59;;;;;;;23.60;19.30;;;13.40;99.90;;;;;;5022592;28;20212;-64
2023/10/06 03:29:43;;;;;;;22.53;18.83;;;13.40;99.90;;;;;;5024802;28;20718;-64
2023/10/06 03:32:20;;;;;;;23.20;19.20;;;13.40;99.90;;;;;;5024956;28;20734;-64
2023/10/06 03:34:50;;;;;;;23.10;20.00;;;13.40;99.90;;;;;;5025232;28;20201;-65
2023/10/06 03:37:34;;;;;;;22.03;19.13;;;13.40;99.90;;;;;;5024852;28;20197;-65
2023/10/06 03:40:11;;;;;;;24.53;18.73;;;13.40;99.90;;;;;;5024741;28;20212;-65
2023/10/06 03:42:38;;;;;;;21.87;19.23;;;13.40;99.90;;;;;;5024791;28;20694;-64
2023/10/06 03:45:23;;;;;;;22.97;18.67;;;13.40;99.90;;;;;;5024143;28;20224;-64
2023/10/06 03:47:50;;;;;;;23.30;19.03;;;13.40;99.90;;;;;;5024281;28;20197;-65
2023/10/06 03:50:19;;;;;;;24.37;18.90;;;13.40;99.90;;;;;;5024276;28;20207;-64
2023/10/06 03:52:47;;;;;;;23.43;19.33;;;13.40;99.90;;;;;;5024069;28;20557;-64
2023/10/06 03:55:14;;;;;;;28.13;20.43;;;13.40;99.90;;;;;;5024236;28;20304;-63
2023/10/06 03:57:42;;;;;;;27.23;20.37;;;13.40;99.90;;;;;;5024607;28;20984;-64
2023/10/06 04:00:17;;;;;;;23.63;19.87;;;13.40;99.90;;;;;;5024382;28;20697;-64
2023/10/06 04:02:48;;;;;;;25.17;19.77;;;13.40;99.90;;;;;;5025486;28;20188;-64
2023/10/06 04:05:18;;;;;;;22.73;20.17;;;13.40;99.90;;;;;;5028867;28;20220;-64
2023/10/06 04:07:46;;;;;;;27.20;20.53;;;13.40;99.90;;;;;;5028577;28;20323;-64
2023/10/06 04:10:15;;;;;;;24.83;20.30;;;13.30;99.90;;;;;;5028242;28;20204;-64
2023/10/06 04:12:43;;;;;;;26.00;20.10;;;13.30;99.90;;;;;;5028141;28;20228;-64
2023/10/06 04:15:15;;;;;;;26.77;20.17;;;13.30;99.90;;;;;;5028186;28;20220;-64
2023/10/06 04:17:43;;;;;;;24.80;21.17;;;13.30;99.90;;;;;;5028774;28;20189;-65
2023/10/06 04:20:14;;;;;;;26.37;20.90;;;13.30;99.90;;;;;;5028149;28;20699;-64
2023/10/06 04:22:42;;;;;;;23.17;19.23;;;13.30;99.90;;;;;;5028129;28;20248;-64
2023/10/06 04:25:11;;;;;;;23.43;20.00;;;13.30;99.90;;;;;;5028063;28;20233;-64
2023/10/06 04:27:39;;;;;;;27.40;20.87;;;13.20;99.90;;;;;;5028353;28;20224;-65
2023/10/06 04:30:12;;;;;;;26.60;20.07;;;13.20;99.90;;;;;;5028211;28;20302;-65
2023/10/06 04:32:40;;;;;;;26.27;21.00;;;13.20;99.90;;;;;;5010871;28;20193;-64
2023/10/06 04:35:19;;;;;;;26.87;20.47;;;13.20;99.90;;;;;;5024904;28;20328;-65
2023/10/06 04:37:48;;;;;;;27.07;20.37;;;13.10;99.90;;;;;;5027709;28;20205;-65
2023/10/06 04:40:18;;;;;;;25.93;19.83;;;13.10;99.90;;;;;;5027877;28;20295;-64
2023/10/06 04:42:45;;;;;;;24.37;20.00;;;13.10;99.90;;;;;;5028174;28;20189;-64
2023/10/06 04:45:13;;;;;;;27.83;20.30;;;13.10;99.90;;;;;;5027852;28;20228;-64
2023/10/06 04:47:41;;;;;;;26.47;21.20;;;13.10;99.90;;;;;;5027753;28;20213;-65
2023/10/06 04:50:11;;;;;;;27.17;22.10;;;13.00;99.90;;;;;;5028121;28;20702;-65
2023/10/06 04:52:38;;;;;;;27.73;19.97;;;13.00;99.90;;;;;;5028088;28;20284;-64
2023/10/06 04:55:11;;;;;;;25.33;20.47;;;13.00;99.90;;;;;;5008290;28;20228;-64
2023/10/06 04:57:37;;;;;;;31.57;21.00;;;13.00;99.90;;;;;;5008437;28;20197;-65
2023/10/06 05:00:06;;;;;;;27.87;22.00;;;13.00;99.90;;;;;;5016058;28;20288;-64
2023/10/06 05:02:34;;;;;;;31.00;21.80;;;13.00;99.90;;;;;;5027740;28;20215;-65
2023/10/06 05:05:05;;;;;;;25.97;20.57;;;12.90;99.90;;;;;;5027796;28;20232;-64
2023/10/06 05:07:32;;;;;;;25.37;22.00;;;13.00;99.90;;;;;;5027762;28;20739;-65
2023/10/06 05:09:59;;;;;;;28.33;22.37;;;12.90;99.90;;;;;;5028152;28;20215;-65
2023/10/06 05:12:26;;;;;;;26.40;21.87;;;12.90;99.90;;;;;;5027091;28;20225;-65
2023/10/06 05:14:53;;;;;;;30.47;22.37;;;12.90;99.90;;;;;;5026744;28;20259;-65
2023/10/06 05:17:21;;;;;;;29.80;22.57;;;12.90;99.90;;;;;;5026778;28;20209;-65
2023/10/06 05:19:48;;;;;;;32.30;22.90;;;12.90;99.90;;;;;;5027076;28;20213;-65
2023/10/06 05:22:18;;;;;;;28.67;22.80;;;12.90;99.90;;;;;;5027451;28;20326;-63
2023/10/06 05:24:45;;;;;;;31.97;22.87;;;12.90;99.90;;;;;;5026838;28;20212;-63
2023/10/06 05:27:12;;;;;;;33.90;22.40;;;13.00;99.90;;;;;;5026425;28;20237;-64
2023/10/06 05:29:39;;;;;;;28.37;23.43;;;13.00;99.90;;;;;;5027490;28;20212;-64
2023/10/06 05:32:06;;;;;;;28.70;22.27;;;13.00;99.90;;;;;;5027145;28;20356;-64
2023/10/06 05:34:34;;;;;;;27.80;22.90;;;13.00;99.90;;;;;;5026286;28;20742;-64
2023/10/06 05:37:01;;;;;;;28.33;20.63;;;13.00;99.90;;;;;;5026781;28;20208;-64
2023/10/06 05:39:33;;;;;;;30.80;21.57;;;13.00;99.90;;;;;;5026280;28;20243;-63
2023/10/06 05:42:02;;;;;;;28.67;22.03;;;13.00;99.90;;;;;;5027089;28;20255;-64
2023/10/06 05:44:30;;;;;;;28.37;21.17;;;12.90;99.90;;;;;;5027195;28;20205;-64
2023/10/06 05:46:57;;;;;;;25.03;21.80;;;13.00;99.90;;;;;;5026705;28;20275;-64
2023/10/06 05:49:24;;;;;;;27.60;21.80;;;12.90;99.90;;;;;;5027201;28;20216;-65
2023/10/06 05:51:51;;;;;;;24.93;20.37;;;12.90;99.90;;;;;;5027257;28;20292;-64
2023/10/06 05:54:21;;;;;;;24.77;20.97;;;12.90;99.90;;;;;;5026234;28;20742;-64
2023/10/06 05:56:53;;;;;;;23.63;21.10;;;13.00;99.90;;;;;;5026868;28;20201;-64
2023/10/06 05:59:21;;;;;;;24.73;19.97;;;12.90;99.90;;;;;;5027051;28;20307;-64
2023/10/06 06:01:56;;;;;;;27.60;20.87;;;12.90;99.90;;;;;;5027125;28;20576;-63
2023/10/06 06:04:27;;;;;;;22.60;19.50;;;12.90;99.90;;;;;;5026469;28;20203;-64
2023/10/06 06:06:56;;;;;;;26.33;20.03;;;12.90;99.90;;;;;;5026264;28;20240;-64
2023/10/06 06:09:24;;;;;;;24.27;19.57;;;13.00;99.90;;;;;;5026710;28;20197;-63
2023/10/06 06:11:52;;;;;;;22.73;19.20;;;12.90;99.90;;;;;;5026497;28;20296;-64
2023/10/06 06:14:21;;;;;;;21.70;18.93;;;13.00;99.90;;;;;;5025934;28;20205;-64
2023/10/06 06:16:48;;;;;;;21.63;19.27;;;13.00;99.90;;;;;;5026464;28;20213;-63
2023/10/06 06:19:15;;;;;;;26.90;19.53;;;13.10;99.90;;;;;;5026213;28;20303;-64
2023/10/06 06:21:42;;;;;;;23.63;18.63;;;13.10;99.90;;;;;;5026416;28;20295;-64
2023/10/06 06:24:10;;;;;;;25.00;18.73;;;13.20;99.90;;;;;;5026271;28;20300;-64
2023/10/06 06:26:37;;;;;;;23.97;18.33;;;13.20;99.90;;;;;;5025646;28;20236;-64
2023/10/06 06:29:08;;;;;;;20.67;18.37;;;13.20;99.90;;;;;;5025935;28;20219;-65
2023/10/06 06:31:36;;;;;;;22.23;17.77;;;13.30;99.90;;;;;;5006551;28;20201;-64
2023/10/06 06:34:04;;;;;;;21.13;17.47;;;13.40;99.90;;;;;;5018673;28;20305;-65
2023/10/06 06:36:32;;;;;;;21.80;17.43;;;13.40;99.90;;;;;;5025888;28;20212;-65
2023/10/06 06:38:59;;;;;;;22.27;17.03;;;13.40;99.90;;;;;;5025729;28;20214;-64
2023/10/06 06:41:26;;;;;;;19.77;15.83;;;13.40;99.90;;;;;;5025952;28;20292;-64
2023/10/06 06:43:58;;;;;;;18.20;16.17;;;13.40;99.90;;;;;;5025945;28;20303;-64
2023/10/06 06:46:29;;;;;;;19.83;16.67;;;13.40;99.90;;;;;;5025687;28;20225;-64
2023/10/06 06:48:57;;;;;;;20.87;15.50;;;13.40;99.90;;;;;;5025380;28;20189;-64
2023/10/06 06:51:27;;;;;;;18.67;15.47;;;13.40;99.90;;;;;;5025957;28;20308;-65
2023/10/06 06:53:56;;;;;;;17.80;15.30;;;13.50;99.90;;;;;;5025818;28;20209;-65
2023/10/06 06:56:24;;;;;;;18.23;14.87;;;13.50;99.90;;;;;;5026030;28;20212;-65
2023/10/06 06:58:51;;;;;;;21.77;15.67;;;13.50;99.90;;;;;;5025812;28;20209;-65
2023/10/06 07:01:18;;;;;;;21.07;14.63;;;13.60;99.90;;;;;;5025573;28;20291;-65
2023/10/06 07:03:47;;;;;;;16.33;14.57;;;13.60;99.90;;;;;;5025437;28;20204;-65
2023/10/06 07:06:16;;;;;;;17.00;15.13;;;13.60;99.90;;;;;;5026188;28;20329;-65
2023/10/06 07:08:43;;;;;;;15.77;14.07;;;13.60;99.90;;;;;;5025680;28;20609;-65
2023/10/06 07:11:12;;;;;;;18.70;14.23;;;13.70;99.90;;;;;;5025254;28;20208;-66
2023/10/06 07:13:39;;;;;;;17.50;14.23;;;13.70;99.90;;;;;;5025102;28;20299;-65
2023/10/06 07:16:09;;;;;;;16.83;14.00;;;13.70;99.90;;;;;;5025147;28;20212;-65
2023/10/06 07:18:37;;;;;;;20.33;14.40;;;13.80;99.90;;;;;;5025419;28;20216;-65
2023/10/06 07:21:10;;;;;;;20.80;14.90;;;13.90;99.90;;;;;;5025162;28;20209;-65
2023/10/06 07:23:37;;;;;;;17.23;13.90;;;13.90;99.90;;;;;;5025400;28;20665;-65
2023/10/06 07:26:11;;;;;;;17.30;14.73;;;14.00;99.90;;;;;;5024908;28;20225;-65
2023/10/06 07:28:39;;;;;;;17.37;12.93;;;14.00;99.90;;;;;;5025346;28;20289;-65
2023/10/06 07:31:10;;;;;;;18.23;12.77;;;14.10;99.90;;;;;;5025438;28;20664;-65
2023/10/06 07:33:38;;;;;;;15.33;13.03;;;14.10;99.90;;;;;;5023854;28;20659;-65
2023/10/06 07:36:14;;;;;;;14.17;12.67;;;14.10;99.90;;;;;;5004204;28;20209;-65
2023/10/06 07:38:41;;;;;;;15.03;11.80;;;14.10;99.90;;;;;;5003861;28;20206;-63
2023/10/06 07:41:09;;;;;;;18.23;12.60;;;14.20;99.90;;;;;;5004357;28;20712;-63
2023/10/06 07:43:37;;;;;;;14.27;12.07;;;14.20;99.90;;;;;;5003974;28;20209;-63
2023/10/06 07:46:07;;;;;;;15.53;12.00;;;14.30;99.90;;;;;;5003885;28;20244;-63
2023/10/06 07:48:37;;;;;;;12.70;11.10;;;14.20;99.90;;;;;;5004061;28;20226;-64
2023/10/06 07:51:06;;;;;;;14.57;11.47;;;14.30;99.90;;;;;;5004240;28;20213;-64
2023/10/06 07:53:35;;;;;;;12.97;11.40;;;14.40;99.90;;;;;;5018242;28;20201;-64
2023/10/06 07:56:06;;;;;;;13.33;10.43;;;14.40;99.90;;;;;;5024039;28;20212;-64
2023/10/06 07:58:33;;;;;;;12.77;11.00;;;14.50;99.90;;;;;;5023378;28;20215;-64
2023/10/06 08:01:02;;;;;;;11.63;9.77;;;14.60;99.90;;;;;;5023485;28;20746;-64
2023/10/06 08:03:29;;;;;;;12.13;10.93;;;14.70;99.90;;;;;;5010954;28;20212;-64
2023/10/06 08:06:01;;;;;;;11.17;10.10;;;14.70;99.90;;;;;;5023870;28;20251;-64
2023/10/06 08:08:28;;;;;;;10.67;9.07;;;14.70;99.90;;;;;;5023332;28;20247;-64
2023/10/06 08:10:57;;;;;;;13.67;9.07;;;14.70;99.90;;;;;;5023778;28;20553;-64
2023/10/06 08:13:25;;;;;;;9.90;8.53;;;14.70;99.90;;;;;;5023910;28;20264;-64
2023/10/06 08:15:52;;;;;;;11.07;9.10;;;14.70;99.90;;;;;;5023810;28;20200;-65
2023/10/06 08:18:19;;;;;;;13.70;9.00;;;14.80;99.90;;;;;;5023583;28;20209;-64
2023/10/06 08:20:47;;;;;;;9.97;8.70;;;14.80;99.90;;;;;;5024133;28;20213;-64
2023/10/06 08:23:15;;;;;;;10.80;8.60;;;14.80;99.90;;;;;;5023293;28;20995;-65
2023/10/06 08:25:44;;;;;;;9.60;8.60;;;14.80;99.90;;;;;;5023034;28;20538;-64
2023/10/06 08:28:12;;;;;;;9.17;8.17;;;14.90;99.90;;;;;;5023605;28;20228;-64
2023/10/06 08:30:40;;;;;;;10.00;8.27;;;14.90;99.90;;;;;;5023691;28;20205;-64
2023/10/06 08:33:09;;;;;;;8.50;7.70;;;14.90;99.90;;;;;;5023205;28;20209;-64
2023/10/06 08:35:36;;;;;;;8.77;7.97;;;15.00;99.90;;;;;;5023615;28;20312;-64
2023/10/06 08:38:04;;;;;;;11.67;8.90;;;15.00;99.90;;;;;;5023790;28;20299;-64
2023/10/06 08:40:35;;;;;;;10.93;8.70;;;15.00;99.90;;;;;;5023990;28;20616;-64
2023/10/06 08:43:06;;;;;;;12.27;7.70;;;15.10;99.90;;;;;;5023435;28;20197;-64
2023/10/06 08:45:41;;;;;;;7.40;6.67;;;15.20;99.90;;;;;;5023747;28;20208;-64
2023/10/06 08:48:13;;;;;;;8.53;6.47;;;15.20;99.90;;;;;;5021440;28;20228;-64
2023/10/06 08:50:43;;;;;;;7.27;6.13;;;15.30;99.90;;;;;;5025671;28;20383;-64
2023/10/06 08:53:13;;;;;;;7.93;6.20;;;15.40;99.90;;;;;;5026705;28;20845;-64
2023/10/06 08:55:41;;;;;;;7.17;5.67;;;15.40;99.90;;;;;;5026881;28;20219;-65
2023/10/06 08:58:08;;;;;;;11.43;6.43;;;15.50;99.90;;;;;;5026951;28;20216;-64
2023/10/06 09:00:37;;;;;;;7.40;6.70;;;15.50;99.90;;;;;;5026681;28;20649;-64
2023/10/06 09:03:08;;;;;;;7.53;5.50;;;15.50;99.90;;;;;;5026209;28;20232;-64
2023/10/06 09:05:40;;;;;;;6.43;5.00;;;15.50;99.90;;;;;;5025706;28;20299;-64
2023/10/06 09:08:08;;;;;;;6.97;5.03;;;15.50;99.90;;;;;;5027298;28;20245;-65
2023/10/06 09:10:37;;;;;;;7.37;4.93;;;15.60;99.90;;;;;;5027474;28;20581;-64
2023/10/06 09:13:05;;;;;;;6.27;4.93;;;15.70;99.90;;;;;;5027148;28;21016;-64
2023/10/06 09:15:35;;;;;;;5.07;4.63;;;15.70;99.90;;;;;;5018435;28;20217;-64
2023/10/06 09:18:19;;;;;;;5.33;4.83;;;15.70;99.90;;;;;;5031711;28;20216;-65
2023/10/06 09:20:47;;;;;;;4.83;4.40;;;15.70;99.90;;;;;;5027906;28;20204;-65
2023/10/06 09:23:30;;;;;;;4.67;4.00;;;15.70;99.90;;;;;;5027001;28;20584;-64
2023/10/06 09:25:57;;;;;;;5.53;4.00;;;15.80;99.90;;;;;;5026880;28;20773;-64
2023/10/06 09:28:26;;;;;;;7.23;4.40;;;15.90;99.90;;;;;;5027246;28;20221;-64
2023/10/06 09:30:57;;;;;;;6.87;3.83;;;16.00;99.90;;;;;;5027446;28;20236;-64
2023/10/06 09:33:26;;;;;;;4.03;3.63;;;16.20;99.90;;;;;;5027040;28;20208;-64
2023/10/06 09:36:11;;;;;;;6.70;4.00;;;16.30;99.90;;;;;;5027187;28;20753;-64
2023/10/06 09:38:39;;;;;;;4.67;3.60;;;16.20;99.90;;;;;;5025732;28;20193;-64
2023/10/06 09:41:07;;;;;;;5.87;3.40;;;16.20;99.90;;;;;;5017393;28;20248;-65
2023/10/06 09:43:36;;;;;;;6.30;3.53;;;16.20;99.90;;;;;;5016085;28;20292;-65
2023/10/06 09:46:11;;;;;;;5.13;3.27;;;16.10;99.90;;;;;;5018405;28;20312;-65
2023/10/06 09:48:40;;;;;;;7.80;3.80;;;16.10;99.90;;;;;;5016465;28;20275;-65
2023/10/06 09:51:09;;;;;;;3.20;2.83;;;16.20;99.90;;;;;;5019133;28;20224;-64
2023/10/06 09:53:38;;;;;;;3.43;2.80;;;16.40;99.90;;;;;;5019577;28;20288;-64
2023/10/06 09:56:07;;;;;;;3.90;3.03;;;16.50;99.90;;;;;;5019784;28;20651;-64
2023/10/06 09:58:36;;;;;;;5.40;3.07;;;16.60;99.90;;;;;;5016008;28;20206;-65
2023/10/06 10:01:03;;;;;;;3.37;2.73;;;16.50;99.90;;;;;;5022591;28;20212;-64
2023/10/06 10:03:33;;;;;;;6.93;3.40;;;16.60;99.90;;;;;;5017786;28;20209;-64
2023/10/06 10:06:04;;;;;;;6.37;4.43;;;16.50;99.90;;;;;;5019556;28;20299;-64
2023/10/06 10:08:32;;;;;;;4.67;3.97;;;16.50;99.90;;;;;;5014397;28;20245;-64
2023/10/06 10:11:06;;;;;;;4.77;2.90;;;16.40;99.90;;;;;;5017451;28;20209;-64
2023/10/06 10:13:50;;;;;;;5.93;2.93;;;16.40;99.90;;;;;;5017584;28;20228;-65
2023/10/06 10:16:30;;;;;;;7.23;3.00;;;16.40;99.90;;;;;;5021373;28;20276;-64
2023/10/06 10:19:03;;;;;;;4.07;2.80;;;16.50;99.90;;;;;;5026223;28;20293;-65
2023/10/06 10:21:34;;;;;;;5.63;3.07;;;16.50;99.90;;;;;;5026828;28;20201;-65
2023/10/06 10:24:05;;;;;;;3.97;2.67;;;16.40;99.90;;;;;;5017545;28;20213;-64
2023/10/06 10:26:34;;;;;;;5.23;3.00;;;16.50;99.90;;;;;;5026426;28;20832;-64
2023/10/06 10:29:28;;;;;;;4.30;2.60;;;16.50;99.90;;;;;;5026779;28;20219;-65
2023/10/06 10:32:01;;;;;;;7.00;2.80;;;16.50;99.90;;;;;;5026707;28;20215;-64
2023/10/06 10:34:33;;;;;;;8.00;3.17;;;16.60;99.90;;;;;;5026564;28;20227;-65
2023/10/06 10:37:20;;;;;;;5.53;2.70;;;16.60;99.90;;;;;;5026490;28;20201;-65
2023/10/06 10:39:51;;;;;;;7.07;2.93;;;16.60;99.90;;;;;;5011535;28;20320;-65
2023/10/06 10:42:21;;;;;;;4.17;2.43;;;16.70;99.90;;;;;;5015336;28;20316;-64
2023/10/06 10:44:49;;;;;;;4.33;2.93;;;16.70;99.90;;;;;;5020151;28;20812;-64
2023/10/06 10:47:17;;;;;;;7.13;2.80;;;16.80;99.90;;;;;;5010962;28;21055;-64
2023/10/06 10:49:46;;;;;;;3.70;2.43;;;16.80;99.90;;;;;;5011631;28;20204;-65
2023/10/06 10:52:13;;;;;;;3.60;2.90;;;16.90;99.90;;;;;;5020714;28;20215;-65
2023/10/06 10:54:42;;;;;;;3.93;2.40;;;16.90;99.90;;;;;;5021080;28;20208;-64
2023/10/06 11:00:14;;;;;;;4.20;2.53;;;17.00;99.90;;;;;;5245107;22;20631;-66
2023/10/06 11:03:02;;;;;;;5.10;2.90;;;17.00;99.90;;;;;;5024078;28;20205;-66
2023/10/06 11:05:31;;;;;;;4.73;2.63;;;17.00;99.90;;;;;;5022356;28;20351;-67
2023/10/06 11:07:59;;;;;;;3.00;2.23;;;17.00;99.90;;;;;;5024664;28;20243;-65
2023/10/06 11:10:28;;;;;;;4.20;2.50;;;17.10;99.90;;;;;;5025259;28;20283;-65
2023/10/06 11:13:15;;;;;;;4.43;2.60;;;17.10;99.90;;;;;;5024898;28;20209;-66
2023/10/06 11:15:42;;;;;;;3.10;2.07;;;17.10;99.90;;;;;;5025274;28;20201;-66
2023/10/06 11:18:09;;;;;;;2.87;2.17;;;17.20;99.90;;;;;;5024407;28;20201;-66
2023/10/06 11:20:38;;;;;;;4.67;2.43;;;17.20;99.90;;;;;;5025219;28;20294;-66
2023/10/06 11:23:05;;;;;;;4.27;2.10;;;17.20;99.90;;;;;;5023015;28;20201;-66
2023/10/06 11:25:36;;;;;;;3.43;2.20;;;17.30;99.90;;;;;;5025053;28;20258;-66
2023/10/06 11:28:04;;;;;;;6.17;2.20;;;17.20;99.90;;;;;;5025196;28;20294;-64
2023/10/06 11:30:32;;;;;;;4.90;2.40;;;17.30;99.90;;;;;;5025202;28;20224;-65
2023/10/06 11:33:02;;;;;;;4.50;2.40;;;17.30;99.90;;;;;;5025197;28;20283;-64
2023/10/06 11:35:30;;;;;;;5.67;3.60;;;17.30;99.90;;;;;;5024806;28;20232;-65
2023/10/06 11:37:58;;;;;;;4.47;4.13;;;17.30;99.90;;;;;;5025032;28;20335;-64
2023/10/06 11:40:25;;;;;;;2.40;2.20;;;17.30;99.90;;;;;;5019501;28;20770;-64
2023/10/06 11:42:53;;;;;;;5.20;2.60;;;17.30;99.90;;;;;;5024697;28;20544;-64
2023/10/06 11:45:30;;;;;;;3.17;2.03;;;17.40;99.90;;;;;;5024361;28;20304;-64
2023/10/06 11:47:58;;;;;;;3.77;2.13;;;17.60;99.90;;;;;;5023441;28;20212;-64
2023/10/06 11:50:26;;;;;;;3.53;2.30;;;17.60;99.90;;;;;;5022482;28;20670;-65
2023/10/06 11:52:55;;;;;;;3.47;2.20;;;17.70;99.90;;;;;;5024656;28;20201;-65
2023/10/06 11:55:26;;;;;;;3.00;2.20;;;17.70;99.90;;;;;;5024644;28;20205;-64
2023/10/06 11:57:55;;;;;;;3.87;2.40;;;17.80;99.90;;;;;;5024481;28;20286;-64
2023/10/06 12:00:39;;;;;;;8.77;2.63;;;17.80;99.90;;;;;;5024550;28;20314;-65
2023/10/06 12:03:08;;;;;;;3.43;2.07;;;17.80;99.90;;;;;;5022015;28;20601;-66
2023/10/06 12:05:36;;;;;;;3.67;2.57;;;17.80;99.90;;;;;;5024498;28;20563;-66
2023/10/06 12:08:04;;;;;;;3.33;2.43;;;17.80;99.90;;;;;;5016675;28;20213;-66
2023/10/06 12:10:33;;;;;;;2.30;1.90;;;17.90;99.90;;;;;;5024149;28;20862;-66
2023/10/06 12:13:05;;;;;;;4.53;2.17;;;17.90;99.90;;;;;;5024479;28;20220;-66
2023/10/06 12:15:32;;;;;;;3.83;2.30;;;18.00;99.90;;;;;;5023749;28;20317;-66
2023/10/06 12:17:59;;;;;;;4.40;2.30;;;18.00;99.90;;;;;;5023559;28;20211;-66
2023/10/06 12:20:27;;;;;;;4.63;2.33;;;18.00;99.90;;;;;;5024159;28;20259;-66
2023/10/06 12:22:54;;;;;;;3.73;2.40;;;17.90;99.90;;;;;;5024428;28;20209;-66
2023/10/06 12:25:23;;;;;;;5.73;2.20;;;17.90;99.90;;;;;;5026591;28;20212;-66
2023/10/06 12:27:50;;;;;;;4.57;2.30;;;17.80;99.90;;;;;;5026702;28;20340;-66
2023/10/06 12:30:19;;;;;;;2.30;1.87;;;17.80;99.90;;;;;;5028484;28;20201;-65
2023/10/06 12:32:47;;;;;;;3.27;1.87;;;17.70;99.90;;;;;;5024711;28;20212;-66
2023/10/06 12:35:18;;;;;;;3.10;2.17;;;17.80;99.90;;;;;;5026792;28;20233;-66
2023/10/06 12:37:45;;;;;;;7.67;2.47;;;17.80;99.90;;;;;;5025646;28;20205;-65
2023/10/06 12:40:14;;;;;;;5.10;2.33;;;17.70;99.90;;;;;;5028256;28;20201;-65
2023/10/06 12:42:43;;;;;;;4.43;2.67;;;17.80;99.90;;;;;;5026317;28;20205;-65
2023/10/06 12:45:13;;;;;;;2.17;1.97;;;17.80;99.90;;;;;;5027916;28;20678;-66
2023/10/06 12:47:45;;;;;;;2.57;1.83;;;17.90;99.90;;;;;;5027700;28;20347;-65
2023/10/06 12:50:13;;;;;;;4.03;2.30;;;17.90;99.90;;;;;;5028134;28;20205;-65
2023/10/06 12:52:40;;;;;;;2.73;1.93;;;17.80;99.90;;;;;;5028247;28;20268;-65